sensor_id;sensor_type;location;lat;lon;timestamp;pressure;altitude;pressure_sealevel;temperature;humidity
32251;BME280;41295;48.518;9.206;2023-03-14T00:00:05;95688.34;;;12.34;71.16
32251;BME280;41295;48.518;9.206;2023-03-14T00:02:09;95699.56;;;12.23;71.27
32251;BME280;41295;48.518;9.206;2023-03-14T00:04:11;95692.84;;;12.19;72.52
32251;BME280;41295;48.518;9.206;2023-03-14T00:06:14;95686.91;;;12.17;71.94
32251;BME280;41295;48.518;9.206;2023-03-14T00:08:17;95666.94;;;12.16;71.70
32251;BME280;41295;48.518;9.206;2023-03-14T00:10:22;95648.44;;;12.19;72.45
32251;BME280;41295;48.518;9.206;2023-03-14T00:12:26;95618.78;;;12.20;71.59
32251;BME280;41295;48.518;9.206;2023-03-14T00:14:29;95593.03;;;12.27;71.09
32251;BME280;41295;48.518;9.206;2023-03-14T00:16:33;95577.38;;;12.14;71.68
32251;BME280;41295;48.518;9.206;2023-03-14T00:18:36;95583.34;;;12.16;72.35
32251;BME280;41295;48.518;9.206;2023-03-14T00:20:38;95567.31;;;12.21;71.65
32251;BME280;41295;48.518;9.206;2023-03-14T00:22:44;95557.31;;;12.01;71.76
32251;BME280;41295;48.518;9.206;2023-03-14T00:24:46;95564.31;;;12.14;70.59
32251;BME280;41295;48.518;9.206;2023-03-14T00:26:49;95558.13;;;12.15;70.27
32251;BME280;41295;48.518;9.206;2023-03-14T00:28:53;95547.53;;;12.30;69.39
32251;BME280;41295;48.518;9.206;2023-03-14T00:30:56;95566.94;;;12.14;69.80
32251;BME280;41295;48.518;9.206;2023-03-14T00:32:59;95571.75;;;12.20;68.88
32251;BME280;41295;48.518;9.206;2023-03-14T00:35:03;95584.00;;;12.31;67.77
32251;BME280;41295;48.518;9.206;2023-03-14T00:37:06;95579.22;;;12.25;68.00
32251;BME280;41295;48.518;9.206;2023-03-14T00:39:08;95569.00;;;12.09;68.40
32251;BME280;41295;48.518;9.206;2023-03-14T00:41:13;95575.00;;;11.98;68.81
32251;BME280;41295;48.518;9.206;2023-03-14T00:43:16;95580.66;;;11.91;68.90
32251;BME280;41295;48.518;9.206;2023-03-14T00:45:20;95586.31;;;11.85;69.16
32251;BME280;41295;48.518;9.206;2023-03-14T00:47:22;95603.84;;;11.96;67.10
32251;BME280;41295;48.518;9.206;2023-03-14T00:49:25;95610.09;;;12.07;67.42
32251;BME280;41295;48.518;9.206;2023-03-14T00:51:28;95619.50;;;11.96;67.49
32251;BME280;41295;48.518;9.206;2023-03-14T00:53:31;95618.03;;;11.92;67.71
32251;BME280;41295;48.518;9.206;2023-03-14T00:55:37;95621.59;;;11.91;68.24
32251;BME280;41295;48.518;9.206;2023-03-14T00:57:40;95624.94;;;11.93;68.22
32251;BME280;41295;48.518;9.206;2023-03-14T00:59:42;95627.69;;;11.91;68.41
32251;BME280;41295;48.518;9.206;2023-03-14T01:01:46;95634.75;;;12.02;68.38
32251;BME280;41295;48.518;9.206;2023-03-14T01:03:51;95638.94;;;11.92;68.61
32251;BME280;41295;48.518;9.206;2023-03-14T01:05:54;95635.41;;;11.80;68.99
32251;BME280;41295;48.518;9.206;2023-03-14T01:08:08;95635.41;;;11.80;69.24
32251;BME280;41295;48.518;9.206;2023-03-14T01:10:11;95635.53;;;11.78;69.72
32251;BME280;41295;48.518;9.206;2023-03-14T01:12:13;95632.47;;;11.85;69.71
32251;BME280;41295;48.518;9.206;2023-03-14T01:14:16;95634.88;;;11.88;69.40
32251;BME280;41295;48.518;9.206;2023-03-14T01:16:20;95634.38;;;11.83;69.62
32251;BME280;41295;48.518;9.206;2023-03-14T01:18:24;95621.94;;;11.73;70.28
32251;BME280;41295;48.518;9.206;2023-03-14T01:20:27;95621.09;;;11.73;70.25
32251;BME280;41295;48.518;9.206;2023-03-14T01:22:32;95595.59;;;11.89;69.38
32251;BME280;41295;48.518;9.206;2023-03-14T01:24:36;95588.50;;;11.78;70.15
32251;BME280;41295;48.518;9.206;2023-03-14T01:26:39;95596.25;;;11.67;71.06
32251;BME280;41295;48.518;9.206;2023-03-14T01:28:41;95586.94;;;11.76;71.01
32251;BME280;41295;48.518;9.206;2023-03-14T01:30:44;95591.34;;;11.62;71.54
32251;BME280;41295;48.518;9.206;2023-03-14T01:32:46;95598.44;;;11.60;72.38
32251;BME280;41295;48.518;9.206;2023-03-14T01:34:51;95596.91;;;11.58;72.47
32251;BME280;41295;48.518;9.206;2023-03-14T01:36:53;95584.88;;;11.55;73.19
32251;BME280;41295;48.518;9.206;2023-03-14T01:38:56;95582.06;;;11.58;73.30
32251;BME280;41295;48.518;9.206;2023-03-14T01:40:59;95574.44;;;11.68;71.41
32251;BME280;41295;48.518;9.206;2023-03-14T01:43:12;95567.97;;;11.74;70.54
32251;BME280;41295;48.518;9.206;2023-03-14T01:47:53;95571.81;;;11.68;70.92
32251;BME280;41295;48.518;9.206;2023-03-14T01:49:59;95567.00;;;11.62;70.99
32251;BME280;41295;48.518;9.206;2023-03-14T01:52:06;95560.44;;;11.69;70.47
32251;BME280;41295;48.518;9.206;2023-03-14T01:54:13;95551.78;;;11.55;71.04
32251;BME280;41295;48.518;9.206;2023-03-14T01:56:17;95546.75;;;11.52;71.10
32251;BME280;41295;48.518;9.206;2023-03-14T01:58:20;95547.59;;;11.66;69.72
32251;BME280;41295;48.518;9.206;2023-03-14T02:00:24;95546.44;;;11.70;69.15
32251;BME280;41295;48.518;9.206;2023-03-14T02:02:27;95533.69;;;11.78;68.10
32251;BME280;41295;48.518;9.206;2023-03-14T02:04:32;95542.53;;;11.89;67.87
32251;BME280;41295;48.518;9.206;2023-03-14T02:06:45;95540.03;;;11.87;67.06
32251;BME280;41295;48.518;9.206;2023-03-14T02:08:49;95544.75;;;11.82;67.94
32251;BME280;41295;48.518;9.206;2023-03-14T02:10:51;95547.13;;;11.85;67.78
32251;BME280;41295;48.518;9.206;2023-03-14T02:12:55;95553.09;;;11.87;67.18
32251;BME280;41295;48.518;9.206;2023-03-14T02:14:59;95543.75;;;11.96;67.04
32251;BME280;41295;48.518;9.206;2023-03-14T02:17:03;95534.69;;;11.89;66.81
32251;BME280;41295;48.518;9.206;2023-03-14T02:19:08;95539.16;;;12.00;66.00
32251;BME280;41295;48.518;9.206;2023-03-14T02:21:14;95530.09;;;11.93;66.56
32251;BME280;41295;48.518;9.206;2023-03-14T02:23:28;95518.28;;;11.87;66.14
32251;BME280;41295;48.518;9.206;2023-03-14T02:25:39;95508.59;;;11.76;67.48
32251;BME280;41295;48.518;9.206;2023-03-14T02:27:47;95506.09;;;11.74;67.64
32251;BME280;41295;48.518;9.206;2023-03-14T02:29:52;95498.72;;;11.68;68.04
32251;BME280;41295;48.518;9.206;2023-03-14T02:31:55;95507.06;;;11.73;67.04
32251;BME280;41295;48.518;9.206;2023-03-14T02:33:58;95509.66;;;11.86;66.34
32251;BME280;41295;48.518;9.206;2023-03-14T02:36:04;95520.72;;;11.77;66.63
32251;BME280;41295;48.518;9.206;2023-03-14T02:38:13;95509.94;;;11.82;66.77
32251;BME280;41295;48.518;9.206;2023-03-14T02:40:17;95513.72;;;11.77;66.68
32251;BME280;41295;48.518;9.206;2023-03-14T02:42:20;95500.78;;;11.76;67.10
32251;BME280;41295;48.518;9.206;2023-03-14T02:44:24;95521.28;;;11.94;66.00
32251;BME280;41295;48.518;9.206;2023-03-14T02:46:27;95516.03;;;12.07;64.44
32251;BME280;41295;48.518;9.206;2023-03-14T02:48:31;95499.19;;;11.86;65.60
32251;BME280;41295;48.518;9.206;2023-03-14T02:50:39;95503.94;;;12.06;64.46
32251;BME280;41295;48.518;9.206;2023-03-14T02:52:41;95504.84;;;12.05;65.45
32251;BME280;41295;48.518;9.206;2023-03-14T02:54:44;95503.75;;;11.96;65.19
32251;BME280;41295;48.518;9.206;2023-03-14T02:56:47;95494.41;;;11.80;65.87
32251;BME280;41295;48.518;9.206;2023-03-14T02:58:49;95489.34;;;11.90;66.27
32251;BME280;41295;48.518;9.206;2023-03-14T03:00:53;95492.25;;;11.74;66.32
32251;BME280;41295;48.518;9.206;2023-03-14T03:02:56;95490.75;;;11.83;66.39
32251;BME280;41295;48.518;9.206;2023-03-14T03:04:59;95505.28;;;11.74;66.35
32251;BME280;41295;48.518;9.206;2023-03-14T03:07:01;95487.94;;;11.73;66.56
32251;BME280;41295;48.518;9.206;2023-03-14T03:09:04;95481.50;;;11.65;67.34
32251;BME280;41295;48.518;9.206;2023-03-14T03:11:07;95471.16;;;11.64;66.87
32251;BME280;41295;48.518;9.206;2023-03-14T03:13:09;95461.72;;;11.74;66.69
32251;BME280;41295;48.518;9.206;2023-03-14T03:15:12;95470.13;;;11.66;66.49
32251;BME280;41295;48.518;9.206;2023-03-14T03:17:16;95471.66;;;11.69;66.67
32251;BME280;41295;48.518;9.206;2023-03-14T03:19:18;95477.38;;;11.74;65.97
32251;BME280;41295;48.518;9.206;2023-03-14T03:21:22;95470.50;;;11.73;65.80
32251;BME280;41295;48.518;9.206;2023-03-14T03:23:25;95465.19;;;11.75;64.89
32251;BME280;41295;48.518;9.206;2023-03-14T03:25:28;95450.53;;;11.72;64.97
32251;BME280;41295;48.518;9.206;2023-03-14T03:27:30;95444.31;;;11.62;65.28
32251;BME280;41295;48.518;9.206;2023-03-14T03:29:33;95450.53;;;11.48;66.40
32251;BME280;41295;48.518;9.206;2023-03-14T03:31:36;95449.78;;;11.46;65.68
32251;BME280;41295;48.518;9.206;2023-03-14T03:33:40;95437.97;;;11.53;65.65
32251;BME280;41295;48.518;9.206;2023-03-14T03:35:44;95447.16;;;11.59;64.86
32251;BME280;41295;48.518;9.206;2023-03-14T03:37:47;95428.66;;;11.62;63.91
32251;BME280;41295;48.518;9.206;2023-03-14T03:39:50;95434.97;;;11.46;65.05
32251;BME280;41295;48.518;9.206;2023-03-14T03:41:53;95429.25;;;11.41;65.19
32251;BME280;41295;48.518;9.206;2023-03-14T03:43:55;95428.81;;;11.47;64.18
32251;BME280;41295;48.518;9.206;2023-03-14T03:45:58;95417.06;;;11.66;63.52
32251;BME280;41295;48.518;9.206;2023-03-14T03:48:04;95422.34;;;11.40;64.23
32251;BME280;41295;48.518;9.206;2023-03-14T03:50:10;95419.41;;;11.58;63.34
32251;BME280;41295;48.518;9.206;2023-03-14T03:52:12;95413.25;;;11.46;64.29
32251;BME280;41295;48.518;9.206;2023-03-14T03:54:17;95415.25;;;11.42;64.49
32251;BME280;41295;48.518;9.206;2023-03-14T03:56:20;95432.25;;;11.48;63.93
32251;BME280;41295;48.518;9.206;2023-03-14T03:58:22;95421.03;;;11.34;64.15
32251;BME280;41295;48.518;9.206;2023-03-14T04:00:25;95414.25;;;11.18;65.15
32251;BME280;41295;48.518;9.206;2023-03-14T04:02:28;95405.69;;;11.29;64.45
32251;BME280;41295;48.518;9.206;2023-03-14T04:04:31;95418.03;;;11.27;64.21
32251;BME280;41295;48.518;9.206;2023-03-14T04:06:36;95420.88;;;11.49;63.36
32251;BME280;41295;48.518;9.206;2023-03-14T04:08:39;95424.44;;;11.35;63.95
32251;BME280;41295;48.518;9.206;2023-03-14T04:10:42;95410.78;;;11.31;64.06
32251;BME280;41295;48.518;9.206;2023-03-14T04:12:45;95410.72;;;11.33;63.64
32251;BME280;41295;48.518;9.206;2023-03-14T04:14:47;95412.34;;;11.34;63.20
32251;BME280;41295;48.518;9.206;2023-03-14T04:16:50;95413.41;;;11.31;63.35
32251;BME280;41295;48.518;9.206;2023-03-14T04:18:53;95420.28;;;11.32;63.15
32251;BME280;41295;48.518;9.206;2023-03-14T04:20:57;95413.00;;;11.24;63.22
32251;BME280;41295;48.518;9.206;2023-03-14T04:23:01;95416.84;;;11.31;62.72
32251;BME280;41295;48.518;9.206;2023-03-14T04:25:05;95420.72;;;11.26;62.55
32251;BME280;41295;48.518;9.206;2023-03-14T04:27:08;95414.81;;;11.11;63.24
32251;BME280;41295;48.518;9.206;2023-03-14T04:29:11;95405.03;;;11.39;61.79
32251;BME280;41295;48.518;9.206;2023-03-14T04:31:17;95414.06;;;11.22;61.50
32251;BME280;41295;48.518;9.206;2023-03-14T04:33:20;95402.56;;;11.24;61.27
32251;BME280;41295;48.518;9.206;2023-03-14T04:35:22;95394.00;;;11.22;61.71
32251;BME280;41295;48.518;9.206;2023-03-14T04:37:25;95382.75;;;11.22;61.57
32251;BME280;41295;48.518;9.206;2023-03-14T04:39:29;95394.13;;;11.21;61.27
32251;BME280;41295;48.518;9.206;2023-03-14T04:41:31;95378.28;;;11.24;61.36
32251;BME280;41295;48.518;9.206;2023-03-14T04:43:34;95380.66;;;11.27;59.81
32251;BME280;41295;48.518;9.206;2023-03-14T04:45:37;95381.91;;;11.21;59.62
32251;BME280;41295;48.518;9.206;2023-03-14T04:47:39;95363.00;;;11.30;59.35
32251;BME280;41295;48.518;9.206;2023-03-14T04:49:42;95372.53;;;11.18;59.91
32251;BME280;41295;48.518;9.206;2023-03-14T04:51:44;95370.59;;;11.34;58.23
32251;BME280;41295;48.518;9.206;2023-03-14T04:53:47;95351.63;;;11.31;58.70
32251;BME280;41295;48.518;9.206;2023-03-14T04:55:52;95350.63;;;11.21;58.15
32251;BME280;41295;48.518;9.206;2023-03-14T04:57:55;95348.00;;;11.21;58.23
32251;BME280;41295;48.518;9.206;2023-03-14T04:59:58;95349.78;;;11.21;58.06
32251;BME280;41295;48.518;9.206;2023-03-14T05:02:00;95339.41;;;11.07;58.77
32251;BME280;41295;48.518;9.206;2023-03-14T05:04:03;95328.84;;;11.09;58.42
32251;BME280;41295;48.518;9.206;2023-03-14T05:06:05;95325.78;;;11.15;58.76
32251;BME280;41295;48.518;9.206;2023-03-14T05:08:08;95326.41;;;11.19;58.79
32251;BME280;41295;48.518;9.206;2023-03-14T05:10:11;95317.84;;;11.17;58.76
32251;BME280;41295;48.518;9.206;2023-03-14T05:12:15;95327.47;;;11.16;58.15
32251;BME280;41295;48.518;9.206;2023-03-14T05:14:17;95324.78;;;11.05;59.07
32251;BME280;41295;48.518;9.206;2023-03-14T05:16:20;95310.44;;;11.24;57.67
32251;BME280;41295;48.518;9.206;2023-03-14T05:18:23;95306.75;;;11.26;57.97
32251;BME280;41295;48.518;9.206;2023-03-14T05:20:25;95311.41;;;11.10;58.75
32251;BME280;41295;48.518;9.206;2023-03-14T05:22:28;95295.69;;;11.11;57.86
32251;BME280;41295;48.518;9.206;2023-03-14T05:24:31;95291.16;;;11.13;58.60
32251;BME280;41295;48.518;9.206;2023-03-14T05:26:33;95288.03;;;11.08;59.00
32251;BME280;41295;48.518;9.206;2023-03-14T05:28:37;95286.34;;;11.20;58.01
32251;BME280;41295;48.518;9.206;2023-03-14T05:30:40;95287.28;;;11.19;58.08
32251;BME280;41295;48.518;9.206;2023-03-14T05:32:42;95292.72;;;11.16;58.25
32251;BME280;41295;48.518;9.206;2023-03-14T05:34:45;95295.00;;;11.21;58.26
32251;BME280;41295;48.518;9.206;2023-03-14T05:36:48;95285.50;;;11.19;57.71
32251;BME280;41295;48.518;9.206;2023-03-14T05:38:50;95286.16;;;11.10;58.43
32251;BME280;41295;48.518;9.206;2023-03-14T05:40:53;95277.72;;;11.06;58.49
32251;BME280;41295;48.518;9.206;2023-03-14T05:42:55;95271.84;;;10.91;58.99
32251;BME280;41295;48.518;9.206;2023-03-14T05:44:59;95282.22;;;11.04;58.35
32251;BME280;41295;48.518;9.206;2023-03-14T05:47:04;95274.19;;;11.07;58.33
32251;BME280;41295;48.518;9.206;2023-03-14T05:49:07;95267.59;;;11.15;57.92
32251;BME280;41295;48.518;9.206;2023-03-14T05:51:09;95273.13;;;11.10;58.46
32251;BME280;41295;48.518;9.206;2023-03-14T05:53:12;95273.47;;;11.05;58.91
32251;BME280;41295;48.518;9.206;2023-03-14T05:55:14;95276.19;;;11.28;57.44
32251;BME280;41295;48.518;9.206;2023-03-14T05:57:17;95263.31;;;11.14;57.66
32251;BME280;41295;48.518;9.206;2023-03-14T05:59:19;95265.91;;;11.14;58.16
32251;BME280;41295;48.518;9.206;2023-03-14T06:01:23;95263.41;;;11.12;58.53
32251;BME280;41295;48.518;9.206;2023-03-14T06:03:26;95261.84;;;11.10;58.57
32251;BME280;41295;48.518;9.206;2023-03-14T06:05:29;95252.25;;;11.10;58.43
32251;BME280;41295;48.518;9.206;2023-03-14T06:07:31;95260.59;;;11.15;58.18
32251;BME280;41295;48.518;9.206;2023-03-14T06:09:34;95251.53;;;11.33;57.50
32251;BME280;41295;48.518;9.206;2023-03-14T06:11:36;95251.09;;;11.14;58.20
32251;BME280;41295;48.518;9.206;2023-03-14T06:13:39;95246.66;;;11.03;58.21
32251;BME280;41295;48.518;9.206;2023-03-14T06:15:42;95249.03;;;11.06;58.24
32251;BME280;41295;48.518;9.206;2023-03-14T06:17:46;95259.03;;;11.13;58.29
32251;BME280;41295;48.518;9.206;2023-03-14T06:19:48;95253.47;;;11.17;57.79
32251;BME280;41295;48.518;9.206;2023-03-14T06:21:51;95252.00;;;11.02;59.07
32251;BME280;41295;48.518;9.206;2023-03-14T06:23:54;95254.72;;;11.00;58.66
32251;BME280;41295;48.518;9.206;2023-03-14T06:25:56;95258.97;;;11.01;58.80
32251;BME280;41295;48.518;9.206;2023-03-14T06:27:59;95261.34;;;11.04;58.85
32251;BME280;41295;48.518;9.206;2023-03-14T06:30:02;95266.56;;;11.04;58.86
32251;BME280;41295;48.518;9.206;2023-03-14T06:32:05;95267.53;;;11.03;59.13
32251;BME280;41295;48.518;9.206;2023-03-14T06:34:09;95276.38;;;11.01;59.92
32251;BME280;41295;48.518;9.206;2023-03-14T06:36:12;95269.75;;;10.97;60.21
32251;BME280;41295;48.518;9.206;2023-03-14T06:38:15;95268.88;;;11.09;59.63
32251;BME280;41295;48.518;9.206;2023-03-14T06:40:18;95266.03;;;11.12;59.45
32251;BME280;41295;48.518;9.206;2023-03-14T06:42:20;95272.00;;;11.01;59.78
32251;BME280;41295;48.518;9.206;2023-03-14T06:44:23;95271.22;;;10.88;60.49
32251;BME280;41295;48.518;9.206;2023-03-14T06:46:26;95260.53;;;11.04;59.96
32251;BME280;41295;48.518;9.206;2023-03-14T06:48:28;95274.47;;;10.91;60.26
32251;BME280;41295;48.518;9.206;2023-03-14T06:50:33;95266.91;;;11.00;59.79
32251;BME280;41295;48.518;9.206;2023-03-14T06:52:36;95267.91;;;11.10;59.85
32251;BME280;41295;48.518;9.206;2023-03-14T06:54:39;95266.41;;;11.19;59.46
32251;BME280;41295;48.518;9.206;2023-03-14T06:56:41;95264.16;;;11.14;59.61
32251;BME280;41295;48.518;9.206;2023-03-14T06:58:44;95257.81;;;11.05;59.63
32251;BME280;41295;48.518;9.206;2023-03-14T07:00:51;95272.59;;;11.18;59.26
32251;BME280;41295;48.518;9.206;2023-03-14T07:02:58;95266.09;;;11.24;58.32
32251;BME280;41295;48.518;9.206;2023-03-14T07:05:00;95270.69;;;11.20;58.89
32251;BME280;41295;48.518;9.206;2023-03-14T07:07:04;95279.28;;;11.34;58.35
32251;BME280;41295;48.518;9.206;2023-03-14T07:09:07;95285.22;;;11.36;58.07
32251;BME280;41295;48.518;9.206;2023-03-14T07:11:09;95277.53;;;11.34;58.18
32251;BME280;41295;48.518;9.206;2023-03-14T07:13:12;95274.72;;;11.24;58.41
32251;BME280;41295;48.518;9.206;2023-03-14T07:15:15;95272.34;;;11.21;59.55
32251;BME280;41295;48.518;9.206;2023-03-14T07:17:20;95280.03;;;11.11;59.82
32251;BME280;41295;48.518;9.206;2023-03-14T07:19:22;95286.66;;;11.40;58.94
32251;BME280;41295;48.518;9.206;2023-03-14T07:21:25;95285.75;;;11.52;58.05
32251;BME280;41295;48.518;9.206;2023-03-14T07:23:29;95281.22;;;11.43;58.27
32251;BME280;41295;48.518;9.206;2023-03-14T07:25:32;95296.81;;;11.31;58.61
32251;BME280;41295;48.518;9.206;2023-03-14T07:27:34;95295.44;;;11.39;58.80
32251;BME280;41295;48.518;9.206;2023-03-14T07:29:37;95302.81;;;11.21;59.81
32251;BME280;41295;48.518;9.206;2023-03-14T07:31:39;95304.34;;;11.36;59.60
32251;BME280;41295;48.518;9.206;2023-03-14T07:33:42;95304.28;;;11.25;59.83
32251;BME280;41295;48.518;9.206;2023-03-14T07:35:46;95306.38;;;11.19;60.43
32251;BME280;41295;48.518;9.206;2023-03-14T07:37:49;95325.25;;;11.23;60.53
32251;BME280;41295;48.518;9.206;2023-03-14T07:39:53;95327.75;;;11.49;58.64
32251;BME280;41295;48.518;9.206;2023-03-14T07:41:55;95330.69;;;11.45;58.65
32251;BME280;41295;48.518;9.206;2023-03-14T07:44:00;95328.69;;;11.48;58.27
32251;BME280;41295;48.518;9.206;2023-03-14T07:46:03;95336.16;;;11.77;56.76
32251;BME280;41295;48.518;9.206;2023-03-14T07:48:06;95333.06;;;11.72;56.63
32251;BME280;41295;48.518;9.206;2023-03-14T07:50:10;95337.06;;;11.89;55.81
32251;BME280;41295;48.518;9.206;2023-03-14T07:52:12;95342.59;;;11.85;56.72
32251;BME280;41295;48.518;9.206;2023-03-14T07:54:15;95339.34;;;11.70;57.24
32251;BME280;41295;48.518;9.206;2023-03-14T07:56:21;95333.34;;;11.56;58.10
32251;BME280;41295;48.518;9.206;2023-03-14T07:58:24;95343.72;;;11.69;58.13
32251;BME280;41295;48.518;9.206;2023-03-14T08:00:27;95345.69;;;11.78;57.48
32251;BME280;41295;48.518;9.206;2023-03-14T08:02:30;95343.00;;;11.67;57.41
32251;BME280;41295;48.518;9.206;2023-03-14T08:04:32;95350.41;;;11.73;56.94
32251;BME280;41295;48.518;9.206;2023-03-14T08:06:35;95348.66;;;11.85;56.84
32251;BME280;41295;48.518;9.206;2023-03-14T08:08:38;95344.94;;;11.76;57.09
32251;BME280;41295;48.518;9.206;2023-03-14T08:10:41;95356.84;;;11.81;57.12
32251;BME280;41295;48.518;9.206;2023-03-14T08:12:45;95344.72;;;11.79;56.82
32251;BME280;41295;48.518;9.206;2023-03-14T08:14:47;95339.66;;;11.89;57.04
32251;BME280;41295;48.518;9.206;2023-03-14T08:16:50;95346.41;;;11.81;57.56
32251;BME280;41295;48.518;9.206;2023-03-14T08:18:53;95344.03;;;11.89;57.25
32251;BME280;41295;48.518;9.206;2023-03-14T08:20:57;95338.41;;;12.07;56.09
32251;BME280;41295;48.518;9.206;2023-03-14T08:23:00;95338.94;;;11.87;56.78
32251;BME280;41295;48.518;9.206;2023-03-14T08:25:03;95333.25;;;11.94;56.70
32251;BME280;41295;48.518;9.206;2023-03-14T08:27:06;95334.47;;;12.01;56.58
32251;BME280;41295;48.518;9.206;2023-03-14T08:29:12;95338.59;;;12.17;55.52
32251;BME280;41295;48.518;9.206;2023-03-14T08:31:15;95338.69;;;12.15;55.60
32251;BME280;41295;48.518;9.206;2023-03-14T08:33:18;95336.03;;;12.03;56.17
32251;BME280;41295;48.518;9.206;2023-03-14T08:35:20;95330.16;;;12.13;56.36
32251;BME280;41295;48.518;9.206;2023-03-14T08:37:23;95343.56;;;12.31;54.75
32251;BME280;41295;48.518;9.206;2023-03-14T08:39:27;95342.25;;;12.14;55.83
32251;BME280;41295;48.518;9.206;2023-03-14T08:41:30;95348.00;;;12.31;55.06
32251;BME280;41295;48.518;9.206;2023-03-14T08:43:32;95345.22;;;12.21;56.24
32251;BME280;41295;48.518;9.206;2023-03-14T08:45:36;95332.28;;;12.19;55.22
32251;BME280;41295;48.518;9.206;2023-03-14T08:47:39;95337.66;;;12.29;56.00
32251;BME280;41295;48.518;9.206;2023-03-14T08:49:42;95339.69;;;12.25;56.21
32251;BME280;41295;48.518;9.206;2023-03-14T08:51:44;95336.47;;;12.33;55.98
32251;BME280;41295;48.518;9.206;2023-03-14T08:53:47;95334.72;;;12.57;55.32
32251;BME280;41295;48.518;9.206;2023-03-14T08:55:52;95358.13;;;12.58;55.52
32251;BME280;41295;48.518;9.206;2023-03-14T08:57:55;95340.63;;;12.70;55.03
32251;BME280;41295;48.518;9.206;2023-03-14T08:59:57;95356.72;;;12.77;54.27
32251;BME280;41295;48.518;9.206;2023-03-14T09:02:01;95344.69;;;12.51;55.36
32251;BME280;41295;48.518;9.206;2023-03-14T09:04:04;95346.97;;;12.79;55.30
32251;BME280;41295;48.518;9.206;2023-03-14T09:06:09;95354.69;;;12.81;56.06
32251;BME280;41295;48.518;9.206;2023-03-14T09:08:12;95354.22;;;12.75;55.17
32251;BME280;41295;48.518;9.206;2023-03-14T09:10:15;95364.19;;;12.82;54.62
32251;BME280;41295;48.518;9.206;2023-03-14T09:12:17;95360.63;;;12.71;55.30
32251;BME280;41295;48.518;9.206;2023-03-14T09:14:20;95380.34;;;12.87;56.17
32251;BME280;41295;48.518;9.206;2023-03-14T09:16:23;95369.66;;;12.79;56.57
32251;BME280;41295;48.518;9.206;2023-03-14T09:18:27;95378.22;;;12.69;58.17
32251;BME280;41295;48.518;9.206;2023-03-14T09:20:30;95379.88;;;12.70;59.52
32251;BME280;41295;48.518;9.206;2023-03-14T09:22:32;95390.47;;;12.80;60.00
32251;BME280;41295;48.518;9.206;2023-03-14T09:24:36;95389.16;;;12.74;59.70
32251;BME280;41295;48.518;9.206;2023-03-14T09:26:39;95401.50;;;12.61;60.18
32251;BME280;41295;48.518;9.206;2023-03-14T09:28:42;95402.69;;;12.45;61.59
32251;BME280;41295;48.518;9.206;2023-03-14T09:30:44;95394.78;;;12.34;63.05
32251;BME280;41295;48.518;9.206;2023-03-14T09:32:47;95389.34;;;12.37;64.01
32251;BME280;41295;48.518;9.206;2023-03-14T09:34:51;95399.16;;;12.22;64.30
32251;BME280;41295;48.518;9.206;2023-03-14T09:36:54;95394.69;;;12.35;64.39
32251;BME280;41295;48.518;9.206;2023-03-14T09:38:57;95407.16;;;12.07;65.41
32251;BME280;41295;48.518;9.206;2023-03-14T09:41:01;95402.59;;;12.22;65.30
32251;BME280;41295;48.518;9.206;2023-03-14T09:43:05;95402.34;;;12.14;65.76
32251;BME280;41295;48.518;9.206;2023-03-14T09:45:11;95398.09;;;12.00;67.09
32251;BME280;41295;48.518;9.206;2023-03-14T09:47:16;95400.34;;;11.93;67.69
32251;BME280;41295;48.518;9.206;2023-03-14T09:49:25;95414.22;;;11.94;68.19
32251;BME280;41295;48.518;9.206;2023-03-14T09:51:31;95414.13;;;12.20;64.90
32251;BME280;41295;48.518;9.206;2023-03-14T09:53:37;95413.66;;;12.26;64.44
32251;BME280;41295;48.518;9.206;2023-03-14T09:55:42;95412.34;;;12.20;64.29
32251;BME280;41295;48.518;9.206;2023-03-14T09:57:46;95410.09;;;12.27;62.50
32251;BME280;41295;48.518;9.206;2023-03-14T09:59:50;95410.25;;;12.37;62.50
32251;BME280;41295;48.518;9.206;2023-03-14T10:01:55;95410.09;;;12.27;62.33
32251;BME280;41295;48.518;9.206;2023-03-14T10:04:01;95409.44;;;12.12;62.63
32251;BME280;41295;48.518;9.206;2023-03-14T10:06:11;95400.22;;;11.95;63.74
32251;BME280;41295;48.518;9.206;2023-03-14T10:08:15;95404.00;;;12.15;62.03
32251;BME280;41295;48.518;9.206;2023-03-14T10:10:20;95418.38;;;12.09;62.36
32251;BME280;41295;48.518;9.206;2023-03-14T10:12:32;95413.66;;;12.01;62.97
32251;BME280;41295;48.518;9.206;2023-03-14T10:14:37;95412.19;;;12.10;61.84
32251;BME280;41295;48.518;9.206;2023-03-14T10:16:43;95414.75;;;11.99;63.46
32251;BME280;41295;48.518;9.206;2023-03-14T10:18:46;95416.28;;;12.01;62.78
32251;BME280;41295;48.518;9.206;2023-03-14T10:21:00;95402.09;;;12.17;61.60
32251;BME280;41295;48.518;9.206;2023-03-14T10:23:05;95402.97;;;12.05;62.96
32251;BME280;41295;48.518;9.206;2023-03-14T10:25:26;95408.44;;;12.01;63.76
32251;BME280;41295;48.518;9.206;2023-03-14T10:27:30;95410.41;;;12.11;61.66
32251;BME280;41295;48.518;9.206;2023-03-14T10:29:34;95400.59;;;12.01;62.01
32251;BME280;41295;48.518;9.206;2023-03-14T10:31:46;95397.56;;;12.08;60.98
32251;BME280;41295;48.518;9.206;2023-03-14T10:34:00;95396.88;;;12.17;60.86
32251;BME280;41295;48.518;9.206;2023-03-14T10:36:14;95398.59;;;12.05;60.93
32251;BME280;41295;48.518;9.206;2023-03-14T10:38:19;95407.81;;;12.22;60.37
32251;BME280;41295;48.518;9.206;2023-03-14T10:40:27;95394.78;;;12.34;58.86
32251;BME280;41295;48.518;9.206;2023-03-14T10:42:32;95400.09;;;12.21;59.62
32251;BME280;41295;48.518;9.206;2023-03-14T10:44:36;95398.06;;;12.13;60.51
32251;BME280;41295;48.518;9.206;2023-03-14T10:46:39;95401.91;;;12.20;60.29
32251;BME280;41295;48.518;9.206;2023-03-14T10:48:42;95399.91;;;12.35;59.33
32251;BME280;41295;48.518;9.206;2023-03-14T10:50:54;95393.16;;;12.33;59.18
32251;BME280;41295;48.518;9.206;2023-03-14T10:53:02;95393.34;;;12.30;59.44
32251;BME280;41295;48.518;9.206;2023-03-14T10:55:10;95395.75;;;12.33;58.63
32251;BME280;41295;48.518;9.206;2023-03-14T10:57:14;95399.34;;;12.43;58.34